sensor_id;sensor_type;location;lat;lon;timestamp;P1;durP1;ratioP1;P2;durP2;ratioP2
2055;SDS011;1033;52.560;13.374;2023-01-29T00:01:09;8.55;;;7.25;;
2055;SDS011;1033;52.560;13.374;2023-01-29T00:03:40;10.98;;;7.20;;
2055;SDS011;1033;52.560;13.374;2023-01-29T00:06:11;11.38;;;7.20;;
2055;SDS011;1033;52.560;13.374;2023-01-29T00:08:45;10.73;;;7.95;;
2055;SDS011;1033;52.560;13.374;2023-01-29T00:11:22;10.43;;;6.82;;
2055;SDS011;1033;52.560;13.374;2023-01-29T00:13:58;15.02;;;8.40;;
2055;SDS011;1033;52.560;13.374;2023-01-29T00:16:29;12.57;;;8.65;;
2055;SDS011;1033;52.560;13.374;2023-01-29T00:18:59;16.45;;;10.00;;
2055;SDS011;1033;52.560;13.374;2023-01-29T00:21:33;9.85;;;7.68;;
2055;SDS011;1033;52.560;13.374;2023-01-29T00:24:03;12.27;;;8.82;;
2055;SDS011;1033;52.560;13.374;2023-01-29T00:26:35;9.63;;;8.23;;
2055;SDS011;1033;52.560;13.374;2023-01-29T00:29:15;15.10;;;7.90;;
2055;SDS011;1033;52.560;13.374;2023-01-29T00:31:48;11.48;;;7.57;;
2055;SDS011;1033;52.560;13.374;2023-01-29T00:34:19;13.40;;;8.65;;
2055;SDS011;1033;52.560;13.374;2023-01-29T00:36:55;11.57;;;8.23;;
2055;SDS011;1033;52.560;13.374;2023-01-29T00:39:32;16.80;;;10.05;;
2055;SDS011;1033;52.560;13.374;2023-01-29T00:42:13;13.20;;;8.27;;
2055;SDS011;1033;52.560;13.374;2023-01-29T00:45:12;14.10;;;8.45;;
2055;SDS011;1033;52.560;13.374;2023-01-29T00:47:45;14.50;;;8.68;;
2055;SDS011;1033;52.560;13.374;2023-01-29T00:50:17;12.70;;;8.38;;
2055;SDS011;1033;52.560;13.374;2023-01-29T00:52:52;11.15;;;8.95;;
2055;SDS011;1033;52.560;13.374;2023-01-29T00:55:24;16.30;;;9.35;;
2055;SDS011;1033;52.560;13.374;2023-01-29T00:57:55;15.38;;;9.32;;
2055;SDS011;1033;52.560;13.374;2023-01-29T01:00:31;15.65;;;10.38;;
2055;SDS011;1033;52.560;13.374;2023-01-29T01:03:03;12.35;;;10.30;;
2055;SDS011;1033;52.560;13.374;2023-01-29T01:05:35;19.05;;;9.98;;
2055;SDS011;1033;52.560;13.374;2023-01-29T01:08:06;12.50;;;9.10;;
2055;SDS011;1033;52.560;13.374;2023-01-29T01:11:01;15.52;;;11.27;;
2055;SDS011;1033;52.560;13.374;2023-01-29T01:13:35;17.02;;;10.70;;
2055;SDS011;1033;52.560;13.374;2023-01-29T01:16:10;16.27;;;10.68;;
2055;SDS011;1033;52.560;13.374;2023-01-29T01:18:42;16.65;;;10.63;;
2055;SDS011;1033;52.560;13.374;2023-01-29T01:21:13;15.75;;;10.55;;
2055;SDS011;1033;52.560;13.374;2023-01-29T01:23:44;14.05;;;10.45;;
2055;SDS011;1033;52.560;13.374;2023-01-29T01:26:18;16.77;;;10.95;;
2055;SDS011;1033;52.560;13.374;2023-01-29T01:28:54;18.05;;;11.00;;
2055;SDS011;1033;52.560;13.374;2023-01-29T01:31:34;16.90;;;12.43;;
2055;SDS011;1033;52.560;13.374;2023-01-29T01:34:08;16.98;;;10.82;;
2055;SDS011;1033;52.560;13.374;2023-01-29T01:36:41;16.77;;;11.98;;
2055;SDS011;1033;52.560;13.374;2023-01-29T01:39:16;14.05;;;10.98;;
2055;SDS011;1033;52.560;13.374;2023-01-29T01:41:49;17.15;;;11.40;;
2055;SDS011;1033;52.560;13.374;2023-01-29T01:44:50;14.88;;;10.18;;
2055;SDS011;1033;52.560;13.374;2023-01-29T01:47:31;16.58;;;11.18;;
2055;SDS011;1033;52.560;13.374;2023-01-29T01:50:11;18.52;;;10.98;;
2055;SDS011;1033;52.560;13.374;2023-01-29T01:52:47;16.35;;;10.65;;
2055;SDS011;1033;52.560;13.374;2023-01-29T01:55:28;18.00;;;12.40;;
2055;SDS011;1033;52.560;13.374;2023-01-29T01:58:03;15.65;;;11.07;;
2055;SDS011;1033;52.560;13.374;2023-01-29T02:00:41;19.15;;;11.55;;
2055;SDS011;1033;52.560;13.374;2023-01-29T02:03:14;19.77;;;13.82;;
2055;SDS011;1033;52.560;13.374;2023-01-29T02:06:07;20.58;;;11.70;;
2055;SDS011;1033;52.560;13.374;2023-01-29T02:09:01;14.70;;;11.00;;
2055;SDS011;1033;52.560;13.374;2023-01-29T02:11:55;15.95;;;11.45;;
2055;SDS011;1033;52.560;13.374;2023-01-29T02:14:26;18.20;;;12.52;;
2055;SDS011;1033;52.560;13.374;2023-01-29T02:16:58;19.30;;;10.70;;
2055;SDS011;1033;52.560;13.374;2023-01-29T02:19:38;19.27;;;12.85;;
2055;SDS011;1033;52.560;13.374;2023-01-29T02:28:27;19.05;;;12.25;;
2055;SDS011;1033;52.560;13.374;2023-01-29T02:31:07;17.48;;;12.93;;
2055;SDS011;1033;52.560;13.374;2023-01-29T02:36:56;26.85;;;12.45;;
2055;SDS011;1033;52.560;13.374;2023-01-29T02:39:33;22.95;;;12.02;;
2055;SDS011;1033;52.560;13.374;2023-01-29T02:42:12;17.05;;;12.00;;
2055;SDS011;1033;52.560;13.374;2023-01-29T02:44:55;24.00;;;11.95;;
2055;SDS011;1033;52.560;13.374;2023-01-29T02:47:34;16.38;;;10.73;;
2055;SDS011;1033;52.560;13.374;2023-01-29T02:50:12;16.55;;;9.93;;
2055;SDS011;1033;52.560;13.374;2023-01-29T02:52:53;21.55;;;12.50;;
2055;SDS011;1033;52.560;13.374;2023-01-29T02:55:37;16.70;;;11.00;;
2055;SDS011;1033;52.560;13.374;2023-01-29T02:58:20;21.63;;;12.20;;
2055;SDS011;1033;52.560;13.374;2023-01-29T03:01:00;17.88;;;12.00;;
2055;SDS011;1033;52.560;13.374;2023-01-29T03:03:40;22.17;;;12.90;;
2055;SDS011;1033;52.560;13.374;2023-01-29T03:06:14;19.40;;;12.32;;
2055;SDS011;1033;52.560;13.374;2023-01-29T03:08:52;16.25;;;12.50;;
2055;SDS011;1033;52.560;13.374;2023-01-29T03:11:30;17.08;;;11.93;;
2055;SDS011;1033;52.560;13.374;2023-01-29T03:14:07;21.98;;;14.30;;
2055;SDS011;1033;52.560;13.374;2023-01-29T03:16:44;18.00;;;12.05;;
2055;SDS011;1033;52.560;13.374;2023-01-29T03:20:01;17.50;;;11.00;;
2055;SDS011;1033;52.560;13.374;2023-01-29T03:22:37;19.13;;;11.40;;
2055;SDS011;1033;52.560;13.374;2023-01-29T03:25:14;20.88;;;11.95;;
2055;SDS011;1033;52.560;13.374;2023-01-29T03:28:05;16.27;;;11.68;;
2055;SDS011;1033;52.560;13.374;2023-01-29T03:30:56;17.98;;;11.35;;
2055;SDS011;1033;52.560;13.374;2023-01-29T03:33:59;18.95;;;12.40;;
2055;SDS011;1033;52.560;13.374;2023-01-29T03:36:43;18.85;;;12.20;;
2055;SDS011;1033;52.560;13.374;2023-01-29T03:39:25;17.73;;;11.43;;
2055;SDS011;1033;52.560;13.374;2023-01-29T03:42:03;21.27;;;12.38;;
2055;SDS011;1033;52.560;13.374;2023-01-29T03:44:42;22.13;;;15.13;;
2055;SDS011;1033;52.560;13.374;2023-01-29T03:47:31;19.73;;;12.77;;
2055;SDS011;1033;52.560;13.374;2023-01-29T03:50:23;18.35;;;12.48;;
2055;SDS011;1033;52.560;13.374;2023-01-29T03:53:04;21.25;;;12.23;;
2055;SDS011;1033;52.560;13.374;2023-01-29T03:55:43;21.88;;;14.60;;
2055;SDS011;1033;52.560;13.374;2023-01-29T03:58:28;21.13;;;13.30;;
2055;SDS011;1033;52.560;13.374;2023-01-29T04:01:09;22.70;;;14.10;;
2055;SDS011;1033;52.560;13.374;2023-01-29T04:03:47;20.33;;;13.88;;
2055;SDS011;1033;52.560;13.374;2023-01-29T04:06:28;19.33;;;12.88;;
2055;SDS011;1033;52.560;13.374;2023-01-29T04:09:07;23.55;;;14.98;;
2055;SDS011;1033;52.560;13.374;2023-01-29T04:11:42;23.10;;;15.77;;
2055;SDS011;1033;52.560;13.374;2023-01-29T04:14:21;20.23;;;13.23;;
2055;SDS011;1033;52.560;13.374;2023-01-29T04:16:54;15.38;;;11.38;;
2055;SDS011;1033;52.560;13.374;2023-01-29T04:19:58;17.83;;;12.18;;
2055;SDS011;1033;52.560;13.374;2023-01-29T04:22:34;20.40;;;12.90;;
2055;SDS011;1033;52.560;13.374;2023-01-29T04:25:07;19.80;;;14.30;;
2055;SDS011;1033;52.560;13.374;2023-01-29T04:27:44;19.92;;;13.00;;
2055;SDS011;1033;52.560;13.374;2023-01-29T04:30:28;20.52;;;13.65;;
2055;SDS011;1033;52.560;13.374;2023-01-29T04:33:21;19.83;;;15.50;;
2055;SDS011;1033;52.560;13.374;2023-01-29T04:36:01;22.98;;;13.95;;
2055;SDS011;1033;52.560;13.374;2023-01-29T04:38:49;28.38;;;14.00;;
2055;SDS011;1033;52.560;13.374;2023-01-29T04:41:34;23.80;;;15.02;;
2055;SDS011;1033;52.560;13.374;2023-01-29T04:44:10;20.02;;;15.00;;
2055;SDS011;1033;52.560;13.374;2023-01-29T04:46:49;19.23;;;12.10;;
2055;SDS011;1033;52.560;13.374;2023-01-29T04:49:28;24.92;;;14.75;;
2055;SDS011;1033;52.560;13.374;2023-01-29T04:52:06;23.67;;;15.05;;
2055;SDS011;1033;52.560;13.374;2023-01-29T04:54:56;27.77;;;15.98;;
2055;SDS011;1033;52.560;13.374;2023-01-29T04:57:39;21.23;;;13.30;;
2055;SDS011;1033;52.560;13.374;2023-01-29T05:00:20;24.25;;;13.77;;
2055;SDS011;1033;52.560;13.374;2023-01-29T05:02:57;23.15;;;15.05;;
2055;SDS011;1033;52.560;13.374;2023-01-29T05:05:30;26.90;;;13.82;;
2055;SDS011;1033;52.560;13.374;2023-01-29T05:08:02;26.77;;;13.23;;
2055;SDS011;1033;52.560;13.374;2023-01-29T05:10:37;26.48;;;15.80;;
2055;SDS011;1033;52.560;13.374;2023-01-29T05:13:10;26.45;;;14.73;;
2055;SDS011;1033;52.560;13.374;2023-01-29T05:15:43;24.55;;;15.98;;
2055;SDS011;1033;52.560;13.374;2023-01-29T05:18:18;28.60;;;16.05;;
2055;SDS011;1033;52.560;13.374;2023-01-29T05:20:51;21.35;;;15.07;;
2055;SDS011;1033;52.560;13.374;2023-01-29T05:23:27;30.63;;;15.80;;
2055;SDS011;1033;52.560;13.374;2023-01-29T05:26:03;28.23;;;16.15;;
2055;SDS011;1033;52.560;13.374;2023-01-29T05:31:50;24.35;;;14.35;;
2055;SDS011;1033;52.560;13.374;2023-01-29T05:34:22;25.98;;;16.30;;
2055;SDS011;1033;52.560;13.374;2023-01-29T05:36:52;30.08;;;15.80;;
2055;SDS011;1033;52.560;13.374;2023-01-29T05:39:24;27.00;;;16.00;;
2055;SDS011;1033;52.560;13.374;2023-01-29T05:41:59;25.83;;;15.57;;
2055;SDS011;1033;52.560;13.374;2023-01-29T05:44:29;24.63;;;15.25;;
2055;SDS011;1033;52.560;13.374;2023-01-29T05:47:09;25.73;;;14.25;;
2055;SDS011;1033;52.560;13.374;2023-01-29T05:49:42;22.48;;;14.40;;
2055;SDS011;1033;52.560;13.374;2023-01-29T05:52:13;24.00;;;15.68;;
2055;SDS011;1033;52.560;13.374;2023-01-29T05:54:47;28.85;;;16.38;;
2055;SDS011;1033;52.560;13.374;2023-01-29T05:57:20;24.63;;;16.63;;
2055;SDS011;1033;52.560;13.374;2023-01-29T05:59:52;28.42;;;15.70;;
2055;SDS011;1033;52.560;13.374;2023-01-29T06:02:28;24.52;;;17.50;;
2055;SDS011;1033;52.560;13.374;2023-01-29T06:05:06;29.92;;;15.77;;
2055;SDS011;1033;52.560;13.374;2023-01-29T06:07:38;28.15;;;15.82;;
2055;SDS011;1033;52.560;13.374;2023-01-29T06:10:12;29.20;;;17.45;;
2055;SDS011;1033;52.560;13.374;2023-01-29T06:12:48;26.50;;;16.60;;
2055;SDS011;1033;52.560;13.374;2023-01-29T06:15:18;23.50;;;15.85;;
2055;SDS011;1033;52.560;13.374;2023-01-29T06:17:55;25.38;;;15.80;;
2055;SDS011;1033;52.560;13.374;2023-01-29T06:20:27;30.13;;;17.65;;
2055;SDS011;1033;52.560;13.374;2023-01-29T06:23:02;32.08;;;18.42;;
2055;SDS011;1033;52.560;13.374;2023-01-29T06:25:36;26.88;;;15.88;;
2055;SDS011;1033;52.560;13.374;2023-01-29T06:28:10;26.42;;;15.65;;
2055;SDS011;1033;52.560;13.374;2023-01-29T06:30:42;30.55;;;17.77;;
2055;SDS011;1033;52.560;13.374;2023-01-29T06:33:15;28.52;;;15.27;;
2055;SDS011;1033;52.560;13.374;2023-01-29T06:35:46;28.95;;;16.35;;
2055;SDS011;1033;52.560;13.374;2023-01-29T06:38:19;25.85;;;17.40;;
2055;SDS011;1033;52.560;13.374;2023-01-29T06:40:54;28.45;;;17.02;;
2055;SDS011;1033;52.560;13.374;2023-01-29T06:43:30;29.73;;;16.45;;
2055;SDS011;1033;52.560;13.374;2023-01-29T06:46:10;32.17;;;18.65;;
2055;SDS011;1033;52.560;13.374;2023-01-29T06:48:42;29.45;;;16.50;;
2055;SDS011;1033;52.560;13.374;2023-01-29T06:51:13;28.08;;;18.35;;
2055;SDS011;1033;52.560;13.374;2023-01-29T06:53:48;29.38;;;18.35;;
2055;SDS011;1033;52.560;13.374;2023-01-29T06:56:20;32.25;;;18.23;;
2055;SDS011;1033;52.560;13.374;2023-01-29T06:58:57;24.85;;;16.00;;
2055;SDS011;1033;52.560;13.374;2023-01-29T07:01:27;29.20;;;17.52;;
2055;SDS011;1033;52.560;13.374;2023-01-29T07:04:04;25.95;;;15.73;;
2055;SDS011;1033;52.560;13.374;2023-01-29T07:06:40;26.23;;;17.08;;
2055;SDS011;1033;52.560;13.374;2023-01-29T07:09:13;26.25;;;15.63;;
2055;SDS011;1033;52.560;13.374;2023-01-29T07:11:43;29.13;;;17.67;;
2055;SDS011;1033;52.560;13.374;2023-01-29T07:14:16;27.75;;;16.33;;
2055;SDS011;1033;52.560;13.374;2023-01-29T07:16:50;34.65;;;16.95;;
2055;SDS011;1033;52.560;13.374;2023-01-29T07:19:27;25.48;;;16.13;;
2055;SDS011;1033;52.560;13.374;2023-01-29T07:21:58;31.65;;;18.00;;
2055;SDS011;1033;52.560;13.374;2023-01-29T07:24:32;26.52;;;16.75;;
2055;SDS011;1033;52.560;13.374;2023-01-29T07:27:06;29.10;;;18.15;;
2055;SDS011;1033;52.560;13.374;2023-01-29T07:29:40;27.45;;;16.92;;
2055;SDS011;1033;52.560;13.374;2023-01-29T07:32:13;31.00;;;15.05;;
2055;SDS011;1033;52.560;13.374;2023-01-29T07:34:44;31.73;;;16.55;;
2055;SDS011;1033;52.560;13.374;2023-01-29T07:37:18;29.48;;;16.83;;
2055;SDS011;1033;52.560;13.374;2023-01-29T07:39:50;30.08;;;15.60;;
2055;SDS011;1033;52.560;13.374;2023-01-29T07:42:24;30.00;;;19.80;;
2055;SDS011;1033;52.560;13.374;2023-01-29T07:44:58;27.80;;;17.33;;
2055;SDS011;1033;52.560;13.374;2023-01-29T07:47:34;29.13;;;17.17;;
2055;SDS011;1033;52.560;13.374;2023-01-29T07:50:08;28.35;;;16.42;;
2055;SDS011;1033;52.560;13.374;2023-01-29T07:52:41;27.35;;;16.48;;
2055;SDS011;1033;52.560;13.374;2023-01-29T07:55:19;31.23;;;17.63;;
2055;SDS011;1033;52.560;13.374;2023-01-29T07:57:54;34.25;;;20.42;;
2055;SDS011;1033;52.560;13.374;2023-01-29T08:00:27;32.17;;;18.27;;
2055;SDS011;1033;52.560;13.374;2023-01-29T08:03:05;28.98;;;17.27;;
2055;SDS011;1033;52.560;13.374;2023-01-29T08:05:40;24.85;;;16.80;;
2055;SDS011;1033;52.560;13.374;2023-01-29T08:08:18;31.50;;;17.38;;
2055;SDS011;1033;52.560;13.374;2023-01-29T08:10:53;29.05;;;19.30;;
2055;SDS011;1033;52.560;13.374;2023-01-29T08:13:26;34.95;;;19.20;;
2055;SDS011;1033;52.560;13.374;2023-01-29T08:16:08;30.10;;;18.42;;
2055;SDS011;1033;52.560;13.374;2023-01-29T08:18:42;30.75;;;17.95;;
2055;SDS011;1033;52.560;13.374;2023-01-29T08:21:14;41.20;;;20.75;;
2055;SDS011;1033;52.560;13.374;2023-01-29T08:23:44;37.10;;;17.92;;
2055;SDS011;1033;52.560;13.374;2023-01-29T08:26:17;32.25;;;16.45;;
2055;SDS011;1033;52.560;13.374;2023-01-29T08:28:54;30.83;;;16.70;;
2055;SDS011;1033;52.560;13.374;2023-01-29T08:31:28;31.40;;;18.33;;
2055;SDS011;1033;52.560;13.374;2023-01-29T08:34:00;35.70;;;18.80;;
2055;SDS011;1033;52.560;13.374;2023-01-29T08:36:37;27.85;;;15.77;;
2055;SDS011;1033;52.560;13.374;2023-01-29T08:39:09;34.95;;;19.23;;
2055;SDS011;1033;52.560;13.374;2023-01-29T08:41:39;30.63;;;19.88;;
2055;SDS011;1033;52.560;13.374;2023-01-29T08:44:11;33.00;;;17.92;;
2055;SDS011;1033;52.560;13.374;2023-01-29T08:46:49;38.03;;;20.60;;
2055;SDS011;1033;52.560;13.374;2023-01-29T08:49:30;34.38;;;19.20;;
2055;SDS011;1033;52.560;13.374;2023-01-29T08:52:06;29.00;;;15.90;;
2055;SDS011;1033;52.560;13.374;2023-01-29T08:54:45;32.88;;;19.20;;
2055;SDS011;1033;52.560;13.374;2023-01-29T08:57:19;33.75;;;20.27;;
2055;SDS011;1033;52.560;13.374;2023-01-29T08:59:53;32.45;;;18.58;;
2055;SDS011;1033;52.560;13.374;2023-01-29T09:02:28;30.08;;;18.40;;
2055;SDS011;1033;52.560;13.374;2023-01-29T09:05:02;32.15;;;19.85;;
2055;SDS011;1033;52.560;13.374;2023-01-29T09:07:36;33.47;;;18.10;;
2055;SDS011;1033;52.560;13.374;2023-01-29T09:10:07;33.55;;;17.60;;
2055;SDS011;1033;52.560;13.374;2023-01-29T09:12:39;34.45;;;17.33;;
2055;SDS011;1033;52.560;13.374;2023-01-29T09:15:11;31.65;;;19.48;;
2055;SDS011;1033;52.560;13.374;2023-01-29T09:17:54;31.15;;;17.42;;
2055;SDS011;1033;52.560;13.374;2023-01-29T09:20:27;30.55;;;21.02;;
2055;SDS011;1033;52.560;13.374;2023-01-29T09:23:02;28.40;;;15.52;;
2055;SDS011;1033;52.560;13.374;2023-01-29T09:25:37;27.88;;;17.70;;
2055;SDS011;1033;52.560;13.374;2023-01-29T09:28:22;32.58;;;17.63;;
2055;SDS011;1033;52.560;13.374;2023-01-29T09:30:54;40.88;;;17.88;;
2055;SDS011;1033;52.560;13.374;2023-01-29T09:33:29;31.27;;;18.00;;
2055;SDS011;1033;52.560;13.374;2023-01-29T09:36:03;33.80;;;19.38;;
2055;SDS011;1033;52.560;13.374;2023-01-29T09:39:05;32.28;;;17.63;;
2055;SDS011;1033;52.560;13.374;2023-01-29T09:41:42;30.42;;;16.98;;
2055;SDS011;1033;52.560;13.374;2023-01-29T09:44:26;27.50;;;16.52;;
2055;SDS011;1033;52.560;13.374;2023-01-29T09:47:14;26.20;;;15.73;;
2055;SDS011;1033;52.560;13.374;2023-01-29T09:49:56;26.30;;;16.60;;
2055;SDS011;1033;52.560;13.374;2023-01-29T09:52:34;32.25;;;19.02;;
2055;SDS011;1033;52.560;13.374;2023-01-29T09:55:21;27.23;;;15.95;;
2055;SDS011;1033;52.560;13.374;2023-01-29T09:57:58;32.38;;;17.35;;
2055;SDS011;1033;52.560;13.374;2023-01-29T10:01:01;28.08;;;18.08;;
2055;SDS011;1033;52.560;13.374;2023-01-29T10:03:50;23.60;;;15.52;;
2055;SDS011;1033;52.560;13.374;2023-01-29T10:06:41;25.77;;;16.27;;
2055;SDS011;1033;52.560;13.374;2023-01-29T10:12:43;25.02;;;16.38;;
2055;SDS011;1033;52.560;13.374;2023-01-29T10:15:37;27.02;;;15.75;;
2055;SDS011;1033;52.560;13.374;2023-01-29T10:18:30;24.88;;;16.67;;
2055;SDS011;1033;52.560;13.374;2023-01-29T10:21:38;25.65;;;14.95;;
2055;SDS011;1033;52.560;13.374;2023-01-29T10:24:36;24.38;;;14.88;;
2055;SDS011;1033;52.560;13.374;2023-01-29T10:27:24;20.08;;;13.18;;
2055;SDS011;1033;52.560;13.374;2023-01-29T10:30:07;19.73;;;13.77;;
2055;SDS011;1033;52.560;13.374;2023-01-29T10:32:50;23.35;;;13.20;;
2055;SDS011;1033;52.560;13.374;2023-01-29T10:35:26;23.67;;;14.15;;
2055;SDS011;1033;52.560;13.374;2023-01-29T10:38:12;29.30;;;16.00;;
2055;SDS011;1033;52.560;13.374;2023-01-29T10:40:58;27.15;;;14.50;;
2055;SDS011;1033;52.560;13.374;2023-01-29T10:43:44;24.05;;;15.93;;
2055;SDS011;1033;52.560;13.374;2023-01-29T10:46:28;22.52;;;14.38;;
2055;SDS011;1033;52.560;13.374;2023-01-29T10:49:14;20.77;;;12.75;;
2055;SDS011;1033;52.560;13.374;2023-01-29T10:52:13;21.70;;;13.15;;
2055;SDS011;1033;52.560;13.374;2023-01-29T10:55:18;18.33;;;13.35;;
2055;SDS011;1033;52.560;13.374;2023-01-29T10:58:03;19.50;;;13.02;;
2055;SDS011;1033;52.560;13.374;2023-01-29T11:00:47;21.15;;;16.40;;
2055;SDS011;1033;52.560;13.374;2023-01-29T11:03:22;20.40;;;12.68;;
2055;SDS011;1033;52.560;13.374;2023-01-29T11:05:57;20.70;;;13.00;;
2055;SDS011;1033;52.560;13.374;2023-01-29T11:08:45;18.83;;;12.30;;
2055;SDS011;1033;52.560;13.374;2023-01-29T11:11:29;16.27;;;10.90;;
2055;SDS011;1033;52.560;13.374;2023-01-29T11:14:05;20.70;;;13.63;;
2055;SDS011;1033;52.560;13.374;2023-01-29T11:16:42;26.48;;;15.63;;
2055;SDS011;1033;52.560;13.374;2023-01-29T11:19:16;24.60;;;13.68;;
2055;SDS011;1033;52.560;13.374;2023-01-29T11:22:04;18.50;;;10.95;;
2055;SDS011;1033;52.560;13.374;2023-01-29T11:24:43;19.88;;;11.80;;
2055;SDS011;1033;52.560;13.374;2023-01-29T11:27:20;20.85;;;12.77;;
2055;SDS011;1033;52.560;13.374;2023-01-29T11:29:57;24.58;;;13.70;;
2055;SDS011;1033;52.560;13.374;2023-01-29T11:32:31;16.90;;;11.52;;
2055;SDS011;1033;52.560;13.374;2023-01-29T11:35:18;19.88;;;11.43;;
2055;SDS011;1033;52.560;13.374;2023-01-29T11:37:50;18.73;;;11.98;;
2055;SDS011;1033;52.560;13.374;2023-01-29T11:40:33;18.33;;;13.75;;
2055;SDS011;1033;52.560;13.374;2023-01-29T11:43:19;20.10;;;13.45;;
2055;SDS011;1033;52.560;13.374;2023-01-29T11:45:56;19.52;;;12.95;;
2055;SDS011;1033;52.560;13.374;2023-01-29T11:48:39;19.30;;;12.98;;
2055;SDS011;1033;52.560;13.374;2023-01-29T11:51:19;17.88;;;12.77;;
2055;SDS011;1033;52.560;13.374;2023-01-29T11:53:54;20.98;;;13.27;;
2055;SDS011;1033;52.560;13.374;2023-01-29T11:56:27;25.23;;;14.75;;
2055;SDS011;1033;52.560;13.374;2023-01-29T11:59:12;16.42;;;10.05;;
2055;SDS011;1033;52.560;13.374;2023-01-29T12:02:01;19.00;;;12.57;;
2055;SDS011;1033;52.560;13.374;2023-01-29T12:04:36;20.42;;;12.32;;
2055;SDS011;1033;52.560;13.374;2023-01-29T12:07:10;18.10;;;11.85;;
2055;SDS011;1033;52.560;13.374;2023-01-29T12:09:47;21.40;;;12.40;;
2055;SDS011;1033;52.560;13.374;2023-01-29T12:15:18;20.08;;;12.52;;
2055;SDS011;1033;52.560;13.374;2023-01-29T12:18:00;25.67;;;13.07;;
2055;SDS011;1033;52.560;13.374;2023-01-29T12:20:38;17.73;;;12.60;;
2055;SDS011;1033;52.560;13.374;2023-01-29T12:23:18;20.92;;;12.82;;
2055;SDS011;1033;52.560;13.374;2023-01-29T12:26:01;26.77;;;11.80;;
2055;SDS011;1033;52.560;13.374;2023-01-29T12:28:41;17.02;;;10.63;;
2055;SDS011;1033;52.560;13.374;2023-01-29T12:31:25;16.23;;;11.40;;
2055;SDS011;1033;52.560;13.374;2023-01-29T12:34:03;19.08;;;12.02;;
2055;SDS011;1033;52.560;13.374;2023-01-29T12:36:44;16.13;;;9.80;;
2055;SDS011;1033;52.560;13.374;2023-01-29T12:39:20;15.40;;;11.68;;
2055;SDS011;1033;52.560;13.374;2023-01-29T12:41:56;14.40;;;10.15;;
2055;SDS011;1033;52.560;13.374;2023-01-29T12:44:32;14.38;;;12.48;;
2055;SDS011;1033;52.560;13.374;2023-01-29T12:47:13;19.30;;;11.13;;
2055;SDS011;1033;52.560;13.374;2023-01-29T12:49:50;13.80;;;10.70;;
2055;SDS011;1033;52.560;13.374;2023-01-29T12:52:29;16.98;;;10.35;;
2055;SDS011;1033;52.560;13.374;2023-01-29T12:55:10;20.73;;;13.55;;
2055;SDS011;1033;52.560;13.374;2023-01-29T12:57:49;18.45;;;12.35;;
2055;SDS011;1033;52.560;13.374;2023-01-29T13:00:25;15.55;;;11.43;;
2055;SDS011;1033;52.560;13.374;2023-01-29T13:03:01;19.15;;;13.55;;
2055;SDS011;1033;52.560;13.374;2023-01-29T13:05:40;16.83;;;11.27;;
2055;SDS011;1033;52.560;13.374;2023-01-29T13:08:19;22.63;;;12.43;;
2055;SDS011;1033;52.560;13.374;2023-01-29T13:11:00;21.77;;;11.25;;
2055;SDS011;1033;52.560;13.374;2023-01-29T13:13:41;16.90;;;12.63;;
2055;SDS011;1033;52.560;13.374;2023-01-29T13:16:21;19.92;;;13.07;;
2055;SDS011;1033;52.560;13.374;2023-01-29T13:18:57;19.40;;;12.93;;
2055;SDS011;1033;52.560;13.374;2023-01-29T13:21:32;19.63;;;11.35;;
2055;SDS011;1033;52.560;13.374;2023-01-29T13:24:09;21.52;;;13.75;;
2055;SDS011;1033;52.560;13.374;2023-01-29T13:26:43;21.42;;;13.43;;
2055;SDS011;1033;52.560;13.374;2023-01-29T13:29:19;17.45;;;10.65;;
2055;SDS011;1033;52.560;13.374;2023-01-29T13:31:52;17.55;;;11.80;;
2055;SDS011;1033;52.560;13.374;2023-01-29T13:34:31;22.13;;;13.18;;
2055;SDS011;1033;52.560;13.374;2023-01-29T13:37:08;21.42;;;13.35;;
2055;SDS011;1033;52.560;13.374;2023-01-29T13:39:45;17.75;;;12.77;;
2055;SDS011;1033;52.560;13.374;2023-01-29T13:42:23;18.77;;;12.27;;
2055;SDS011;1033;52.560;13.374;2023-01-29T13:45:04;19.52;;;11.32;;
2055;SDS011;1033;52.560;13.374;2023-01-29T13:47:36;18.60;;;13.38;;
2055;SDS011;1033;52.560;13.374;2023-01-29T13:50:16;22.13;;;13.35;;
2055;SDS011;1033;52.560;13.374;2023-01-29T13:52:55;22.40;;;13.20;;
2055;SDS011;1033;52.560;13.374;2023-01-29T13:55:29;24.25;;;13.68;;
2055;SDS011;1033;52.560;13.374;2023-01-29T13:58:03;19.52;;;11.77;;
2055;SDS011;1033;52.560;13.374;2023-01-29T14:06:45;19.42;;;13.00;;
2055;SDS011;1033;52.560;13.374;2023-01-29T14:09:31;19.92;;;12.60;;
2055;SDS011;1033;52.560;13.374;2023-01-29T14:12:30;23.98;;;14.80;;
2055;SDS011;1033;52.560;13.374;2023-01-29T14:23:52;25.45;;;15.35;;
2055;SDS011;1033;52.560;13.374;2023-01-29T14:26:27;27.52;;;14.00;;
2055;SDS011;1033;52.560;13.374;2023-01-29T14:29:00;23.17;;;14.70;;
2055;SDS011;1033;52.560;13.374;2023-01-29T14:31:41;23.48;;;14.35;;
2055;SDS011;1033;52.560;13.374;2023-01-29T14:34:21;25.63;;;15.55;;
2055;SDS011;1033;52.560;13.374;2023-01-29T14:36:59;24.63;;;14.20;;
2055;SDS011;1033;52.560;13.374;2023-01-29T14:39:34;26.98;;;16.40;;
2055;SDS011;1033;52.560;13.374;2023-01-29T14:42:15;27.95;;;15.70;;
2055;SDS011;1033;52.560;13.374;2023-01-29T14:44:58;25.00;;;15.35;;
2055;SDS011;1033;52.560;13.374;2023-01-29T14:47:54;27.83;;;16.40;;
2055;SDS011;1033;52.560;13.374;2023-01-29T14:50:40;26.35;;;15.48;;
2055;SDS011;1033;52.560;13.374;2023-01-29T14:53:21;25.73;;;14.65;;
2055;SDS011;1033;52.560;13.374;2023-01-29T14:56:03;30.38;;;18.58;;
2055;SDS011;1033;52.560;13.374;2023-01-29T14:58:43;34.00;;;17.85;;
2055;SDS011;1033;52.560;13.374;2023-01-29T15:01:24;32.85;;;18.42;;
2055;SDS011;1033;52.560;13.374;2023-01-29T15:04:01;25.10;;;16.17;;
2055;SDS011;1033;52.560;13.374;2023-01-29T15:06:42;24.98;;;15.05;;
2055;SDS011;1033;52.560;13.374;2023-01-29T15:09:19;29.58;;;18.63;;
2055;SDS011;1033;52.560;13.374;2023-01-29T15:12:07;33.05;;;17.98;;
2055;SDS011;1033;52.560;13.374;2023-01-29T15:14:47;33.15;;;19.20;;
2055;SDS011;1033;52.560;13.374;2023-01-29T15:17:27;30.90;;;18.02;;
2055;SDS011;1033;52.560;13.374;2023-01-29T15:20:18;25.92;;;17.80;;
2055;SDS011;1033;52.560;13.374;2023-01-29T15:22:58;27.85;;;16.33;;
2055;SDS011;1033;52.560;13.374;2023-01-29T15:25:33;28.05;;;17.25;;
2055;SDS011;1033;52.560;13.374;2023-01-29T15:28:19;26.67;;;17.00;;
2055;SDS011;1033;52.560;13.374;2023-01-29T15:30:50;27.17;;;16.67;;
2055;SDS011;1033;52.560;13.374;2023-01-29T15:33:25;27.27;;;17.30;;
2055;SDS011;1033;52.560;13.374;2023-01-29T15:36:07;31.67;;;17.30;;
2055;SDS011;1033;52.560;13.374;2023-01-29T15:38:47;22.85;;;15.40;;
2055;SDS011;1033;52.560;13.374;2023-01-29T15:41:34;23.70;;;14.27;;
2055;SDS011;1033;52.560;13.374;2023-01-29T15:44:11;27.45;;;17.10;;
2055;SDS011;1033;52.560;13.374;2023-01-29T15:46:46;32.10;;;16.85;;
2055;SDS011;1033;52.560;13.374;2023-01-29T15:49:21;29.27;;;18.20;;
2055;SDS011;1033;52.560;13.374;2023-01-29T15:51:59;25.50;;;16.80;;
2055;SDS011;1033;52.560;13.374;2023-01-29T15:54:36;31.60;;;16.20;;
2055;SDS011;1033;52.560;13.374;2023-01-29T15:57:11;29.13;;;17.52;;
2055;SDS011;1033;52.560;13.374;2023-01-29T15:59:51;30.63;;;18.95;;
2055;SDS011;1033;52.560;13.374;2023-01-29T16:02:37;25.52;;;15.95;;
2055;SDS011;1033;52.560;13.374;2023-01-29T16:05:12;22.75;;;15.77;;
2055;SDS011;1033;52.560;13.374;2023-01-29T16:07:50;22.52;;;16.23;;
2055;SDS011;1033;52.560;13.374;2023-01-29T16:10:27;30.63;;;15.48;;
2055;SDS011;1033;52.560;13.374;2023-01-29T16:13:01;27.33;;;17.40;;
2055;SDS011;1033;52.560;13.374;2023-01-29T16:15:36;30.30;;;16.92;;